Terminal Aerodrome Forecast
Issued by NWS

Home | Current Version | Previous Version | Graphics & Text | Print | Product List | Glossary On
Versions: 1 2 3 4 5 6 7 8 9 10 11 12 13 14 15 16 17 18 19
000
FTUS43 KTOP 250311 AAA
TAFMHK
TAF AMD
KMHK 250311Z 2503/2524 35009G20KT P6SM VCSH BKN015 OVC080
     FM250500 34005G18KT 5SM -RA OVC013
     FM251000 33005KT 5SM -RA OVC006
     FM251900 01009KT 2SM -RA OVC006=

USA.gov is the U.S. government's official web portal to all federal, state and local government web resources and services.